Latest Weather Observations for Roxby Downs

IDS60801

Issued at 3:05 pm CST Sunday 20 April 2014 (issued every 30 minutes, with the page automatically refreshed every 10 minutes)

About weather observations | Map of weather stations | Latest weather observations for SA | Other Formats
Station Details ID: 016096 Name: OLYMPIC DAM AERODROME Lat: -30.48 Lon: 136.88 Height: 98.5 m
Data from the previous 72 hours. | See also: Recent months at Roxby Downs
Date/Time
CST
Temp
°C
App
Temp
°C
Dew
Point
Rel
Hum
%
Delta-T
°C
Wind Press
QNH
hPa
Press
MSL
hPa
Rain
since 9 am
mm
Dir
 
Spd
km/h
Gust
km/h
Spd
kts
Gust
kts
20/03:00pm 29.5 26.7 6.8 24 12.2 NW 11 19 6 10 1015.5 1015.3 0.0
20/02:30pm 29.5 28.1 7.4 25 12.0 WSW 4 7 2 4 1015.6 - 0.0
20/02:00pm 29.3 27.1 7.8 26 11.7 NW 9 15 5 8 1015.9 - 0.0
20/01:30pm 28.5 25.4 5.4 23 12.0 NW 11 20 6 11 1016.3 - 0.0
20/01:00pm 28.1 26.4 8.4 29 10.8 NW 7 13 4 7 1016.8 - 0.0
20/12:30pm 27.8 26.0 9.6 32 10.2 N 9 17 5 9 1017.4 - 0.0
20/12:00pm 27.3 26.2 10.5 35 9.5 ENE 7 11 4 6 1017.9 1017.7 0.0
20/11:30am 26.6 25.5 10.7 37 9.0 SE 7 11 4 6 1018.4 - 0.0
20/11:00am 26.1 25.2 11.4 39 8.4 ENE 7 11 4 6 1018.7 - 0.0
20/10:30am 24.8 24.0 11.7 44 7.5 SE 7 13 4 7 1018.9 - 0.0
20/10:00am 23.6 22.5 12.0 48 6.6 SE 9 13 5 7 1019.0 - 0.0
20/09:30am 22.4 21.4 12.4 53 5.7 SE 9 15 5 8 1019.1 - 0.0
20/09:00am 21.6 20.9 11.9 54 5.4 SE 7 11 4 6 1019.3 1019.1 0.0
20/08:30am 19.2 19.9 12.2 64 3.9 CALM 0 0 0 0 1019.1 - 0.0
20/08:00am 17.5 17.7 11.8 69 3.1 E 2 7 1 4 1018.9 - 0.0
20/07:30am 16.1 15.5 11.7 75 2.4 NE 6 9 3 5 1018.6 - 0.0
20/07:00am 14.5 13.2 11.3 81 1.7 NE 9 13 5 7 1018.3 - 0.0
20/06:30am 13.5 13.7 10.5 82 1.6 CALM 0 0 0 0 1018.0 - 0.0
20/06:00am 14.3 13.4 10.7 79 1.9 S 6 7 3 4 1017.7 1017.5 0.0
20/05:30am 14.7 13.6 10.7 77 2.1 S 7 7 4 4 1017.7 - 0.0
20/05:00am 14.8 13.7 10.6 76 2.2 S 7 9 4 5 1017.4 - 0.0
20/04:30am 14.6 14.1 10.6 77 2.1 WSW 4 9 2 5 1017.1 - 0.0
20/04:00am 15.2 15.4 10.6 74 2.4 CALM 0 0 0 0 1017.0 - 0.0
20/03:30am 15.7 14.8 10.5 71 2.8 W 6 7 3 4 1017.0 - 0.0
20/03:00am 16.0 14.5 10.7 71 2.8 NW 9 11 5 6 1017.0 1016.8 0.0
20/02:30am 14.9 13.9 11.1 78 2.0 SW 7 9 4 5 1017.3 - 0.0
20/02:00am 14.5 13.7 10.9 79 1.9 W 6 7 3 4 1017.1 - 0.0
20/01:30am 14.7 13.5 10.3 75 2.3 N 7 7 4 4 1017.2 - 0.0
20/01:00am 16.4 15.0 10.9 70 3.0 N 9 11 5 6 1017.1 - 0.0
20/12:30am 14.9 15.1 10.7 76 2.2 CALM 0 0 0 0 1017.1 - 0.0
20/12:00am 14.8 13.9 10.6 76 2.2 SE 6 7 3 4 1017.0 1016.8 0.0
 
Date/Time
CST
Temp
°C
App
Temp
°C
Dew
Point
Rel
Hum
%
Delta-T
°C
Wind Press
QNH
hPa
Press
MSL
hPa
Rain
since 9 am
mm
Dir
 
Spd
km/h
Gust
km/h
Spd
kts
Gust
kts
19/11:30pm 15.3 14.5 10.9 75 2.3 S 6 6 3 3 1017.1 - 0.0
19/11:00pm 15.6 14.5 10.8 73 2.6 S 7 9 4 5 1017.4 - 0.0
19/10:30pm 16.0 14.9 10.5 70 2.9 S 7 9 4 5 1017.5 - 0.0
19/10:00pm 17.0 15.7 10.1 64 3.7 S 7 9 4 5 1017.5 - 0.0
19/09:30pm 17.0 15.7 11.1 68 3.2 SSE 9 11 5 6 1017.5 - 0.0
19/09:00pm 18.1 17.0 10.7 62 4.0 S 7 7 4 4 1017.3 1017.1 0.0
19/08:30pm 19.7 18.6 10.7 56 4.9 S 7 9 4 5 1017.2 - 0.0
19/08:00pm 21.5 19.4 9.7 47 6.4 SSW 11 13 6 7 1017.1 - 0.0
19/07:30pm 20.0 19.6 11.2 57 4.8 SW 4 7 2 4 1016.7 - 0.0
19/07:00pm 22.5 21.2 9.3 43 7.1 SW 6 7 3 4 1016.3 - 0.0
19/06:30pm 23.5 22.4 9.9 42 7.5 SW 6 9 3 5 1016.2 - 0.0
19/06:00pm 26.3 25.9 9.6 35 9.2 S 2 6 1 3 1016.1 1015.9 0.0
19/05:30pm 27.6 26.4 9.4 32 10.1 SSW 6 9 3 5 1016.0 - 0.0
19/05:00pm 28.5 27.1 9.7 31 10.5 WSW 7 11 4 6 1016.1 - 0.0
19/04:30pm 28.1 25.5 9.4 31 10.4 WSW 13 20 7 11 1016.2 - 0.0
19/04:00pm 28.5 25.6 9.7 31 10.5 W 15 24 8 13 1016.5 - 0.0
19/03:30pm 28.2 24.5 9.5 31 10.4 NW 19 28 10 15 1016.7 - 0.0
19/03:00pm 28.1 24.4 9.4 31 10.4 NW 19 32 10 17 1016.9 1016.7 0.0
19/02:30pm 27.4 24.4 10.6 35 9.5 NW 17 26 9 14 1017.2 - 0.0
19/02:00pm 26.9 23.9 10.6 36 9.2 WNW 17 22 9 12 1017.5 - 0.0
19/01:30pm 26.1 22.4 10.3 37 8.8 NNW 20 30 11 16 1018.0 - 0.0
19/01:00pm 26.0 22.7 11.0 39 8.5 NNW 19 28 10 15 1018.7 - 0.0
19/12:30pm 25.4 22.6 11.2 41 8.0 N 17 26 9 14 1019.5 - 0.0
19/12:00pm 24.5 21.3 11.1 43 7.5 N 19 28 10 15 1020.2 1020.0 0.0
19/11:30am 24.5 21.3 11.1 43 7.5 N 19 28 10 15 1020.7 - 0.0
19/11:00am 23.2 19.9 10.9 46 6.9 N 19 30 10 16 1021.1 - 0.0
19/10:30am 22.9 19.7 11.3 48 6.5 N 19 26 10 14 1021.3 - 0.0
19/10:00am 22.4 19.6 11.5 50 6.1 NNE 17 22 9 12 1021.5 - 0.0
19/09:30am 21.6 18.6 10.7 50 6.0 NE 17 20 9 11 1021.7 - 0.0
19/09:00am 20.7 17.8 11.1 54 5.3 NE 17 22 9 12 1021.8 1021.6 0.0
19/08:30am 19.6 18.0 11.4 59 4.5 E 11 15 6 8 1021.8 - 0.0
19/08:00am 17.5 15.8 11.1 66 3.5 E 11 15 6 8 1021.5 - 0.0
19/07:30am 15.3 15.7 11.1 76 2.3 CALM 0 0 0 0 1021.3 - 0.0
19/07:00am 12.9 13.0 10.3 84 1.4 CALM 0 0 0 0 1021.2 - 0.0
19/06:30am 13.5 12.9 10.3 81 1.7 SE 4 6 2 3 1021.1 - 0.0
19/06:00am 14.2 12.7 10.6 79 1.9 SSE 9 11 5 6 1020.8 1020.6 0.0
19/05:30am 14.5 12.7 10.7 78 2.0 SSE 11 13 6 7 1020.7 - 0.0
19/05:00am 14.6 12.8 10.8 78 2.0 SSE 11 13 6 7 1020.3 - 0.0
19/04:30am 14.6 12.8 11.0 79 1.9 SSE 11 13 6 7 1020.2 - 0.0
19/04:00am 14.6 12.8 11.0 79 1.9 SSE 11 11 6 6 1020.2 - 0.0
19/03:30am 14.9 13.6 11.1 78 2.0 SSE 9 11 5 6 1020.1 - 0.0
19/03:00am 15.2 13.9 11.2 77 2.1 SSE 9 11 5 6 1020.2 1020.0 0.0
19/02:30am 15.7 14.4 11.1 74 2.5 SSE 9 11 5 6 1020.4 - 0.0
19/02:00am 16.6 14.9 11.3 71 2.9 SE 11 13 6 7 1020.6 - 0.0
19/01:30am 17.4 15.8 11.4 68 3.3 SE 11 15 6 8 1020.8 - 0.0
19/01:00am 17.6 16.4 11.6 68 3.3 ESE 9 13 5 7 1021.0 - 0.0
19/12:30am 18.1 17.1 12.3 69 3.2 ESE 9 15 5 8 1021.0 - 0.0
19/12:00am 18.5 17.4 12.0 66 3.6 ESE 9 13 5 7 1021.0 1020.8 0.0
 
Date/Time
CST
Temp
°C
App
Temp
°C
Dew
Point
Rel
Hum
%
Delta-T
°C
Wind Press
QNH
hPa
Press
MSL
hPa
Rain
since 9 am
mm
Dir
 
Spd
km/h
Gust
km/h
Spd
kts
Gust
kts
18/11:30pm 19.2 17.2 11.5 61 4.2 E 13 17 7 9 1021.1 - 0.0
18/11:00pm 19.8 17.3 11.0 57 4.8 ESE 15 19 8 10 1021.1 - 0.0
18/10:30pm 20.2 18.1 11.1 56 5.0 E 13 20 7 11 1021.3 - 0.0
18/10:00pm 19.1 17.8 10.1 56 4.8 ENE 7 9 4 5 1021.3 - 0.0
18/09:30pm 19.5 18.0 10.5 56 4.9 SE 9 11 5 6 1021.3 - 0.0
18/09:00pm 19.4 17.9 10.7 57 4.7 SE 9 9 5 5 1021.2 1021.0 0.0
18/08:30pm 20.3 19.1 10.4 53 5.4 SE 7 9 4 5 1021.1 - 0.0
18/08:00pm 21.3 19.8 10.5 50 5.9 SE 9 9 5 5 1021.0 - 0.0
18/07:30pm 21.9 20.4 10.7 49 6.2 SSE 9 11 5 6 1020.8 - 0.0
18/07:00pm 22.8 21.3 10.6 46 6.7 SSE 9 11 5 6 1020.6 - 0.0
18/06:30pm 23.6 22.5 10.6 44 7.2 SSE 7 9 4 5 1020.3 - 0.0
18/06:00pm 25.3 23.3 10.0 38 8.5 S 11 15 6 8 1020.0 1019.8 0.0
18/05:30pm 26.4 23.9 9.7 35 9.3 S 13 19 7 10 1019.9 - 0.0
18/05:00pm 27.0 23.8 9.8 34 9.6 S 17 24 9 13 1019.8 - 0.0
18/04:30pm 27.1 24.3 9.9 34 9.6 S 15 22 8 12 1019.7 - 0.0
18/04:00pm 27.6 24.8 9.9 33 9.9 SSW 15 26 8 14 1019.6 - 0.0
18/03:30pm 28.2 25.8 9.9 32 10.3 SSW 13 22 7 12 1019.6 - 0.0
18/03:00pm 28.1 25.5 9.4 31 10.4 S 13 24 7 13 1019.8 1019.6 0.0
18/02:30pm 28.0 25.9 9.8 32 10.2 WSW 11 17 6 9 1019.8 - 0.0
18/02:00pm 28.0 25.4 9.3 31 10.4 SSW 13 19 7 10 1020.0 - 0.0
18/01:30pm 27.6 26.2 9.0 31 10.3 E 6 9 3 5 1020.2 - 0.0
18/01:00pm 27.4 25.3 9.7 33 9.9 S 11 17 6 9 1020.5 - 0.0
18/12:30pm 27.0 26.1 9.4 33 9.7 SW 4 13 2 7 1021.0 - 0.0
18/12:00pm 26.9 25.7 9.7 34 9.5 S 6 13 3 7 1021.6 1021.4 0.0
18/11:30am 26.8 25.7 10.1 35 9.3 E 6 13 3 7 1022.0 - 0.0
18/11:00am 26.1 24.8 9.9 36 9.0 E 7 13 4 7 1022.0 - 0.0
18/10:30am 25.2 22.9 10.3 39 8.3 E 13 19 7 10 1022.2 - 0.0
18/10:00am 24.4 22.6 11.0 43 7.5 E 11 17 6 9 1022.3 - 0.0
18/09:30am 23.5 20.3 11.2 46 6.9 SE 19 26 10 14 1022.6 - 0.0
18/09:00am 21.6 18.2 10.7 50 6.0 SSE 19 28 10 15 1023.0 1022.8 0.0
18/08:30am 20.1 18.8 11.3 57 4.9 SSE 9 11 5 6 1022.7 - 0.0
18/08:00am 18.1 18.3 10.7 62 4.0 CALM 0 0 0 0 1022.0 - 0.0
18/07:30am 15.3 14.6 9.9 70 2.8 S 4 9 2 5 1021.8 - 0.0
18/07:00am 13.7 12.0 9.7 77 2.1 NNE 9 11 5 6 1021.3 - 0.0
18/06:30am 12.9 12.9 9.7 81 1.6 CALM 0 0 0 0 1021.3 - 0.0
18/06:00am 12.1 12.1 9.8 86 1.2 CALM 0 0 0 0 1021.2 1021.0 0.0
18/05:30am 12.5 12.4 9.5 82 1.5 CALM 0 0 0 0 1020.9 - 0.0
18/05:00am 12.7 11.3 9.7 82 1.5 S 7 9 4 5 1020.8 - 0.0
18/04:30am 13.2 11.8 9.6 79 1.8 SW 7 9 4 5 1020.7 - 0.0
18/04:00am 14.1 12.7 9.5 74 2.4 SSW 7 9 4 5 1020.5 - 0.0
18/03:30am 13.9 12.4 9.1 73 2.4 SW 7 9 4 5 1020.4 - 0.0
18/03:00am 14.3 14.2 9.5 73 2.5 CALM 0 0 0 0 1020.4 1020.2 0.0
18/02:30am 13.8 13.7 9.3 74 2.3 CALM 0 0 0 0 1020.5 - 0.0
18/02:00am 14.6 14.4 9.2 70 2.8 CALM 0 0 0 0 1020.7 - 0.0
18/01:30am 14.4 14.0 9.6 73 2.5 SW 2 9 1 5 1020.8 - 0.0
18/01:00am 14.4 14.3 9.4 72 2.6 CALM 0 0 0 0 1020.7 - 0.0
18/12:30am 14.7 14.6 9.5 71 2.7 CALM 0 0 0 0 1020.7 - 0.0
18/12:00am 15.3 15.3 9.9 70 2.8 CALM 0 0 0 0 1020.7 1020.5 0.0
 
Date/Time
CST
Temp
°C
App
Temp
°C
Dew
Point
Rel
Hum
%
Delta-T
°C
Wind Press
QNH
hPa
Press
MSL
hPa
Rain
since 9 am
mm
Dir
 
Spd
km/h
Gust
km/h
Spd
kts
Gust
kts
17/11:30pm 16.7 15.5 10.3 66 3.4 NNE 7 9 4 5 1021.0 - 0.0
17/11:00pm 18.2 16.5 8.5 53 5.0 NNE 7 9 4 5 1021.1 - 0.0
17/10:30pm 19.0 16.7 8.9 52 5.3 NNE 11 13 6 7 1021.3 - 0.0
17/10:00pm 19.1 16.9 9.3 53 5.2 N 11 13 6 7 1021.3 - 0.0
17/09:30pm 16.7 14.9 9.6 63 3.7 NE 9 11 5 6 1021.2 - 0.0
17/09:00pm 17.3 15.7 10.2 63 3.8 NE 9 9 5 5 1021.2 1021.0 0.0
17/08:30pm 18.6 17.7 9.4 55 4.9 ESE 4 11 2 6 1021.1 - 0.0
17/08:00pm 18.3 18.1 9.1 55 4.8 CALM 0 0 0 0 1020.8 - 0.0
17/07:30pm 19.2 19.1 9.4 53 5.2 CALM 0 0 0 0 1020.5 - 0.0
17/07:00pm 20.8 20.8 9.7 49 6.0 CALM 0 6 0 3 1020.2 - 0.0
17/06:30pm 23.0 21.6 9.0 41 7.5 SSE 6 7 3 4 1020.0 - 0.0
17/06:00pm 25.7 23.5 6.3 29 10.1 S 7 9 4 5 1019.7 1019.5 0.0
17/05:30pm 27.4 24.3 5.6 25 11.3 SSW 11 15 6 8 1019.5 - 0.0
17/05:00pm 28.1 24.6 5.6 24 11.7 S 13 17 7 9 1019.3 - 0.0
17/04:30pm 28.3 25.1 5.2 23 12.0 SSW 11 15 6 8 1019.3 - 0.0
17/04:00pm 28.4 25.2 5.3 23 12.0 WNW 11 17 6 9 1019.5 - 0.0
17/03:30pm 28.7 25.5 4.9 22 12.3 SW 11 17 6 9 1019.5 - 0.0

Other Formats:

Comma delimited format used in spreadsheet applications
http://www.bom.gov.au/fwo/IDS60801/IDS60801.95658.axf

JavaScript Object Notation format (JSON) in row-major order
http://www.bom.gov.au/fwo/IDS60801/IDS60801.95658.json